Nearby METAR Reports

 

KLEX - Lexington, Kentucky, USA
Distance from station: WNW 7mi, 11km
Updated: Tue, 19-Jun-2018 3:54am EDT
Clear
Clear
 Wind from SW
Wind: SW 7 mph , 11 km/h
Temperature: 75°F , 24°C
Dew Point: 72°F , 22°C
Humidity: 89%
Barometer: 30.05 inHg , 1017.6 hPa
Clouds: Clear
Visibility: 10 miles , 16 km
2018/06/19 07:54 KLEX 190754Z 23006KT 10SM CLR 24/22 A3005 RMK AO2 SLP162 T02390217
KFFT - Frankfort, Kentucky, USA
Distance from station: WNW 26mi, 42km
Updated: Tue, 19-Jun-2018 3:53am EDT
Clear
Clear
 Wind from SW
Wind: SW 6 mph , 9 km/h
Temperature: 75°F , 24°C
Dew Point: 72°F , 22°C
Humidity: 89%
Barometer: 30.02 inHg , 1016.6 hPa
Clouds: Clear
Visibility: 10 miles , 16 km
2018/06/19 07:53 KFFT 190753Z AUTO 23005KT 10SM CLR 24/22 A3002 RMK AO2 SLP156 T02390217
 
KIOB - Mount Sterling, Kentucky, USA
Distance from station: E 27mi, 44km
Updated: Tue, 19-Jun-2018 4:35am EDT
Clear
Clear
 Wind from WSW
Wind: WSW 6 mph , 9 km/h
Temperature: 73°F , 23°C
Dew Point: 72°F , 22°C
Humidity: 94%
Barometer: 30.06 inHg , 1017.9 hPa
Clouds: Clear
Visibility: 10 miles , 16 km
2018/06/19 08:35 KIOB 190835Z AUTO 24005KT 10SM CLR 23/22 A3006 RMK AO2
KDVK - Danville, Kentucky, USA
Distance from station: SSW 33mi, 53km
Updated: Tue, 19-Jun-2018 4:35am EDT
Clear
Clear
 Wind from calm
Wind: Calm
Temperature: 73°F , 23°C
Dew Point: 70°F , 21°C
Humidity: 89%
Barometer: 30.07 inHg , 1018.3 hPa
Clouds: Clear
Visibility: 10 miles , 16 km
2018/06/19 08:35 KDVK 190835Z AUTO 00000KT 10SM CLR 23/21 A3007 RMK AO2